Burr, Nebraska
Current Conditions -  °F | °C
As of 4:35 AM on Saturday 25 Oct 2014 (Local Time) from KAFK Reporting Station
Clear Clear  
Wind Chill: 56°   Ceiling: Unl
Heat Index: 56°   Visibility: 10mi
Dew Point: 46°   Wind: 3mph
Humidity: 71%   Direction: 340°NNW
Pressure: 30.03"   Gusts: NA
Location:  40.54°N, 96.3°W
Report Text: KAFK 250935Z AUTO 34003KT 10SM CLR 13/08 A3003 RMK AO2 T01310080
Loading
Personal Weather Stations






























Interactive Weather Map
Tropical Storm Tracking
New forecast layout! Learn more

10-Day Weather Forecast

Advertisements
Track Severe Weather on mobile